Time;durP1;ratioP1;P1;durP2;ratioP2;P2;SDS_P1;SDS_P2;PMS_P1;PMS_P2;Temp;Humidity;BMP_temperature;BMP_pressure;BME280_temperature;BME280_humidity;BME280_pressure;Samples;Min_cycle;Max_cycle;Signal;HPM_P1;HPM_P2
2024/03/01 00:01:50;;;;;;;53.15;25.25;;;4.10;99.90;;;;;;5112320;28;20103;-66
2024/03/01 00:04:16;;;;;;;51.22;24.83;;;4.10;99.90;;;;;;5111910;28;20032;-66
2024/03/01 00:06:42;;;;;;;52.83;25.15;;;4.10;99.90;;;;;;5111546;28;20031;-64
2024/03/01 00:09:07;;;;;;;52.90;26.98;;;4.10;99.90;;;;;;5110393;28;20103;-65
2024/03/01 00:11:34;;;;;;;50.47;25.55;;;4.10;99.90;;;;;;5111700;28;20243;-65
2024/03/01 00:14:00;;;;;;;54.72;26.13;;;4.10;99.90;;;;;;5111634;28;20027;-65
2024/03/01 00:16:25;;;;;;;50.53;25.60;;;4.00;99.90;;;;;;5110205;28;20016;-65
2024/03/01 00:18:51;;;;;;;53.10;26.08;;;4.00;99.90;;;;;;5111633;28;20016;-65
2024/03/01 00:21:16;;;;;;;50.63;25.73;;;4.00;99.90;;;;;;5111846;28;20472;-65
2024/03/01 00:23:42;;;;;;;59.53;27.60;;;4.00;99.90;;;;;;5111912;28;20042;-65
2024/03/01 00:26:08;;;;;;;55.08;27.40;;;4.00;99.90;;;;;;5109596;28;20042;-65
2024/03/01 00:28:34;;;;;;;57.35;27.48;;;4.00;99.90;;;;;;5117420;27;20035;-65
2024/03/01 00:31:01;;;;;;;56.67;27.40;;;4.00;99.90;;;;;;5110739;28;20426;-64
2024/03/01 00:33:27;;;;;;;53.17;27.02;;;4.00;99.90;;;;;;5110748;28;20035;-65
2024/03/01 00:35:52;;;;;;;53.80;25.75;;;4.00;99.90;;;;;;5110727;28;20031;-65
2024/03/01 00:38:18;;;;;;;49.63;24.73;;;3.90;99.90;;;;;;5110861;28;20032;-64
2024/03/01 00:40:44;;;;;;;48.67;24.67;;;3.90;99.90;;;;;;5109861;28;20106;-65
2024/03/01 00:43:10;;;;;;;48.55;24.60;;;3.90;99.90;;;;;;5110969;28;20059;-65
2024/03/01 00:45:36;;;;;;;58.30;27.45;;;3.80;99.90;;;;;;5111028;28;20059;-65
2024/03/01 00:48:10;;;;;;;49.42;24.83;;;3.80;99.90;;;;;;5109290;28;20473;-65
2024/03/01 00:50:36;;;;;;;57.90;27.23;;;3.80;99.90;;;;;;5111735;28;20040;-65
2024/03/01 00:53:03;;;;;;;53.10;25.80;;;3.70;99.90;;;;;;5109969;28;20051;-66
2024/03/01 00:55:30;;;;;;;52.97;25.58;;;3.80;99.90;;;;;;5109708;28;20277;-65
2024/03/01 00:57:55;;;;;;;59.28;27.95;;;3.80;99.90;;;;;;5111175;28;20047;-66
2024/03/01 01:00:21;;;;;;;48.47;24.23;;;3.70;99.90;;;;;;5111162;28;20058;-66
2024/03/01 01:02:47;;;;;;;52.42;25.15;;;3.70;99.90;;;;;;5111022;27;20355;-66
2024/03/01 01:05:12;;;;;;;52.53;25.63;;;3.70;99.90;;;;;;5111105;28;20072;-66
2024/03/01 01:07:38;;;;;;;58.25;25.75;;;3.60;99.90;;;;;;5109217;28;20535;-66
2024/03/01 01:10:04;;;;;;;55.90;26.75;;;3.60;99.90;;;;;;5110753;28;20115;-66
2024/03/01 01:12:30;;;;;;;51.00;25.77;;;3.70;99.90;;;;;;5110634;27;20020;-65
2024/03/01 01:14:56;;;;;;;51.97;25.58;;;3.70;99.90;;;;;;5110850;28;20019;-65
2024/03/01 01:17:21;;;;;;;54.25;25.00;;;3.70;99.90;;;;;;5110671;28;20358;-65
2024/03/01 01:19:47;;;;;;;53.20;25.55;;;3.60;99.90;;;;;;5110833;28;20028;-65
2024/03/01 01:22:12;;;;;;;54.67;26.60;;;3.60;99.90;;;;;;5109771;28;20076;-65
2024/03/01 01:24:38;;;;;;;46.78;24.75;;;3.60;99.90;;;;;;5110455;28;20111;-66
2024/03/01 01:27:04;;;;;;;51.45;27.02;;;3.50;99.90;;;;;;5110295;28;20086;-66
2024/03/01 01:29:29;;;;;;;54.60;27.05;;;3.50;99.90;;;;;;5110338;28;20028;-65
2024/03/01 01:31:55;;;;;;;52.83;25.77;;;3.60;99.90;;;;;;5110188;28;20131;-65
2024/03/01 01:34:20;;;;;;;54.20;28.02;;;3.60;99.90;;;;;;5110699;28;20114;-65
2024/03/01 01:36:46;;;;;;;53.78;26.30;;;3.70;99.90;;;;;;5109921;28;20028;-65
2024/03/01 01:39:11;;;;;;;57.83;26.23;;;3.70;99.90;;;;;;5110887;28;20026;-65
2024/03/01 01:41:38;;;;;;;58.75;26.58;;;3.60;99.90;;;;;;5110265;28;20019;-65
2024/03/01 01:44:04;;;;;;;56.03;26.65;;;3.60;99.90;;;;;;5110531;28;20054;-65
2024/03/01 01:46:29;;;;;;;59.10;27.10;;;3.70;99.90;;;;;;5109575;28;20027;-66
2024/03/01 01:48:55;;;;;;;57.50;26.30;;;3.60;99.90;;;;;;5108654;28;20039;-65
2024/03/01 01:51:22;;;;;;;52.33;25.58;;;3.50;99.90;;;;;;5108308;28;20020;-66
2024/03/01 01:53:47;;;;;;;50.88;24.52;;;3.50;99.90;;;;;;5109622;28;20035;-65
2024/03/01 01:56:14;;;;;;;51.65;25.25;;;3.40;99.90;;;;;;5109718;27;20376;-65
2024/03/01 01:58:41;;;;;;;53.83;25.20;;;3.40;99.90;;;;;;5110204;28;20039;-65
2024/03/01 02:01:08;;;;;;;52.78;25.33;;;3.30;99.90;;;;;;5109647;28;20019;-65
2024/03/01 02:03:39;;;;;;;48.08;23.98;;;3.30;99.90;;;;;;5108526;28;20016;-65
2024/03/01 02:06:06;;;;;;;50.35;24.70;;;3.30;99.90;;;;;;5107718;28;20019;-65
2024/03/01 02:08:33;;;;;;;52.80;25.58;;;3.30;99.90;;;;;;5109790;28;20035;-66
2024/03/01 02:10:59;;;;;;;52.47;24.83;;;3.30;99.90;;;;;;5107720;28;20330;-65
2024/03/01 02:13:24;;;;;;;47.40;22.75;;;3.30;99.90;;;;;;5109799;28;20024;-65
2024/03/01 02:15:50;;;;;;;56.78;25.42;;;3.20;99.90;;;;;;5109397;28;21033;-65
2024/03/01 02:18:15;;;;;;;53.40;26.23;;;3.20;99.90;;;;;;5109742;28;20408;-65
2024/03/01 02:21:10;;;;;;;52.63;25.42;;;3.20;99.90;;;;;;5108091;28;20382;-65
2024/03/01 02:23:36;;;;;;;50.60;26.40;;;3.30;99.90;;;;;;5108154;28;20105;-65
2024/03/01 02:26:01;;;;;;;54.65;25.95;;;3.30;99.90;;;;;;5108111;28;20388;-65
2024/03/01 02:28:27;;;;;;;52.22;26.17;;;3.30;99.90;;;;;;5109309;28;20603;-65
2024/03/01 02:30:53;;;;;;;45.78;23.95;;;3.30;99.90;;;;;;5109037;28;20058;-65
2024/03/01 02:33:21;;;;;;;48.97;24.27;;;3.20;99.90;;;;;;5107611;28;20036;-66
2024/03/01 02:35:47;;;;;;;52.78;24.67;;;3.20;99.90;;;;;;5108663;28;20323;-65
2024/03/01 02:38:13;;;;;;;54.13;25.30;;;3.20;99.90;;;;;;5107739;28;20024;-65
2024/03/01 02:40:38;;;;;;;53.85;24.70;;;3.20;99.90;;;;;;5109247;28;20127;-65
2024/03/01 02:43:06;;;;;;;52.13;24.15;;;3.20;99.90;;;;;;5109214;28;20028;-64
2024/03/01 02:45:32;;;;;;;51.92;24.65;;;3.20;99.90;;;;;;5107799;28;20400;-65
2024/03/01 02:47:57;;;;;;;49.25;22.42;;;3.10;99.90;;;;;;5107477;28;20028;-65
2024/03/01 02:50:23;;;;;;;53.08;23.95;;;3.00;99.90;;;;;;5109280;28;20103;-65
2024/03/01 02:52:49;;;;;;;46.80;23.20;;;3.00;99.90;;;;;;5107578;28;20035;-65
2024/03/01 02:55:20;;;;;;;46.97;23.63;;;3.00;99.90;;;;;;5109038;28;20381;-65
2024/03/01 02:57:47;;;;;;;45.75;23.20;;;2.90;99.90;;;;;;5108437;28;20012;-66
2024/03/01 03:00:14;;;;;;;53.35;24.95;;;2.90;99.90;;;;;;5108916;28;20030;-66
2024/03/01 03:02:39;;;;;;;50.80;23.88;;;2.80;99.90;;;;;;5108773;28;20027;-66
2024/03/01 03:05:05;;;;;;;50.58;24.38;;;2.80;99.90;;;;;;5109002;28;20028;-65
2024/03/01 03:07:30;;;;;;;55.63;26.65;;;2.80;99.90;;;;;;5108694;28;20019;-66
2024/03/01 03:09:56;;;;;;;53.17;22.98;;;2.90;99.90;;;;;;5108950;28;20052;-65
2024/03/01 03:12:21;;;;;;;43.88;22.98;;;2.80;99.90;;;;;;5108808;28;20094;-65
2024/03/01 03:14:48;;;;;;;51.15;25.27;;;2.70;99.90;;;;;;5108921;28;20028;-66
2024/03/01 03:17:13;;;;;;;52.83;22.70;;;2.70;99.90;;;;;;5112153;28;20488;-66
2024/03/01 03:19:39;;;;;;;52.08;23.48;;;2.70;99.90;;;;;;5112995;28;20095;-64
2024/03/01 03:22:08;;;;;;;46.40;21.67;;;2.70;99.90;;;;;;5113086;28;20034;-65
2024/03/01 03:24:35;;;;;;;48.08;22.63;;;2.60;99.90;;;;;;5113087;28;20106;-65
2024/03/01 03:27:00;;;;;;;53.85;24.80;;;2.70;99.90;;;;;;5112746;27;20031;-64
2024/03/01 03:29:26;;;;;;;63.17;27.42;;;2.60;99.90;;;;;;5113121;28;20084;-64
2024/03/01 03:31:52;;;;;;;49.90;23.73;;;2.60;99.90;;;;;;5112866;28;20024;-64
2024/03/01 03:34:17;;;;;;;51.58;27.02;;;2.60;99.90;;;;;;5112623;28;20068;-65
2024/03/01 03:36:43;;;;;;;49.20;24.40;;;2.70;99.90;;;;;;5112009;28;20051;-64
2024/03/01 03:39:09;;;;;;;49.47;24.48;;;2.70;99.90;;;;;;5112455;28;20027;-64
2024/03/01 03:41:34;;;;;;;56.70;25.95;;;2.70;99.90;;;;;;5112909;28;20047;-64
2024/03/01 03:44:00;;;;;;;47.88;24.10;;;2.60;99.90;;;;;;5111837;27;20024;-64
2024/03/01 03:46:26;;;;;;;55.03;24.67;;;2.60;99.90;;;;;;5109753;28;20024;-65
2024/03/01 03:48:51;;;;;;;50.67;25.13;;;2.60;99.90;;;;;;5112270;27;20447;-65
2024/03/01 03:51:25;;;;;;;51.47;23.73;;;2.60;99.90;;;;;;5111940;28;20034;-64
2024/03/01 03:53:51;;;;;;;48.35;24.05;;;2.60;99.90;;;;;;5111351;28;20019;-64
2024/03/01 03:56:17;;;;;;;47.05;21.75;;;2.50;99.90;;;;;;5111621;28;20497;-65
2024/03/01 03:58:43;;;;;;;59.97;25.75;;;2.40;99.90;;;;;;5112501;28;20135;-64
2024/03/01 04:01:08;;;;;;;54.08;24.08;;;2.40;99.90;;;;;;5110493;28;20031;-64
2024/03/01 04:03:34;;;;;;;56.28;25.77;;;2.40;99.90;;;;;;5111958;28;20588;-64
2024/03/01 04:05:59;;;;;;;55.30;24.88;;;2.40;99.90;;;;;;5111589;28;20032;-64
2024/03/01 04:08:25;;;;;;;55.28;24.60;;;2.40;99.90;;;;;;5111981;28;20023;-65
2024/03/01 04:10:50;;;;;;;53.40;25.42;;;2.40;99.90;;;;;;5112020;28;20095;-65
2024/03/01 04:13:16;;;;;;;51.10;24.17;;;2.30;99.90;;;;;;5111705;28;20400;-64
2024/03/01 04:15:43;;;;;;;59.53;25.80;;;2.30;99.90;;;;;;5111774;28;20019;-65
2024/03/01 04:18:10;;;;;;;59.22;26.67;;;2.30;99.90;;;;;;5111775;28;20031;-65
2024/03/01 04:20:36;;;;;;;51.47;24.05;;;2.30;99.90;;;;;;5111739;28;20017;-65
2024/03/01 04:23:04;;;;;;;53.50;24.48;;;2.20;99.90;;;;;;5111389;28;20038;-65
2024/03/01 04:25:32;;;;;;;51.72;23.80;;;2.20;99.90;;;;;;5111979;28;20167;-65
2024/03/01 04:27:57;;;;;;;49.15;25.33;;;2.20;99.90;;;;;;5109721;28;20445;-65
2024/03/01 04:30:23;;;;;;;55.30;26.73;;;2.20;99.90;;;;;;5111638;28;20099;-64
2024/03/01 04:32:49;;;;;;;51.05;24.40;;;2.20;99.90;;;;;;5111575;28;20024;-65
2024/03/01 04:35:14;;;;;;;49.25;24.20;;;2.30;99.90;;;;;;5111299;28;20100;-65
2024/03/01 04:37:42;;;;;;;58.97;26.20;;;2.30;99.90;;;;;;5109752;28;20485;-65
2024/03/01 04:40:08;;;;;;;55.60;25.90;;;2.20;99.90;;;;;;5111140;28;20091;-64
2024/03/01 04:42:36;;;;;;;49.17;24.10;;;2.20;99.90;;;;;;5111257;28;20098;-65
2024/03/01 04:45:02;;;;;;;55.53;25.33;;;2.20;99.90;;;;;;5111328;28;20012;-65
2024/03/01 04:47:28;;;;;;;56.65;24.73;;;2.20;99.90;;;;;;5109567;28;20041;-64
2024/03/01 04:49:53;;;;;;;51.33;23.17;;;2.20;99.90;;;;;;5111501;28;20544;-64
2024/03/01 04:52:19;;;;;;;53.70;24.40;;;2.20;99.90;;;;;;5109720;28;20088;-64
2024/03/01 04:54:44;;;;;;;56.22;25.90;;;2.10;99.90;;;;;;5111067;28;20035;-64
2024/03/01 04:57:11;;;;;;;60.05;26.17;;;2.20;99.90;;;;;;5110800;28;20023;-64
2024/03/01 04:59:38;;;;;;;58.92;25.73;;;2.20;99.90;;;;;;5109824;28;20020;-64
2024/03/01 05:02:05;;;;;;;49.08;24.30;;;2.30;99.90;;;;;;5109715;28;20032;-64
2024/03/01 05:04:31;;;;;;;53.17;24.00;;;2.20;99.90;;;;;;5111081;28;20024;-64
2024/03/01 05:06:56;;;;;;;62.42;26.67;;;2.20;99.90;;;;;;5110736;28;20068;-64
2024/03/01 05:09:22;;;;;;;52.70;25.67;;;2.20;99.90;;;;;;5110808;28;20384;-64
2024/03/01 05:11:47;;;;;;;55.92;25.98;;;2.10;99.90;;;;;;5109182;28;20035;-64
2024/03/01 05:14:12;;;;;;;53.35;25.80;;;2.20;99.90;;;;;;5110645;28;20469;-64
2024/03/01 05:16:38;;;;;;;57.38;25.45;;;2.20;99.90;;;;;;5110398;28;20035;-64
2024/03/01 05:19:04;;;;;;;55.65;26.92;;;2.20;99.90;;;;;;5109441;28;20023;-64
2024/03/01 05:21:30;;;;;;;48.75;23.77;;;2.20;99.90;;;;;;5111165;28;20024;-64
2024/03/01 05:23:55;;;;;;;51.25;24.05;;;2.10;99.90;;;;;;5110813;28;20403;-64
2024/03/01 05:26:21;;;;;;;57.63;26.08;;;2.10;99.90;;;;;;5110107;28;20031;-64
2024/03/01 05:28:46;;;;;;;49.85;23.60;;;2.10;99.90;;;;;;5110336;28;20031;-64
2024/03/01 05:31:12;;;;;;;53.72;24.35;;;2.10;99.90;;;;;;5109220;28;20023;-64
2024/03/01 05:33:37;;;;;;;54.40;25.90;;;2.10;99.90;;;;;;5110699;28;20073;-64
2024/03/01 05:36:05;;;;;;;59.35;27.17;;;2.10;99.90;;;;;;5109916;28;20028;-64
2024/03/01 05:38:32;;;;;;;52.65;24.15;;;2.10;99.90;;;;;;5110141;28;20102;-64
2024/03/01 05:40:58;;;;;;;55.97;24.60;;;2.10;99.90;;;;;;5109725;28;20015;-64
2024/03/01 05:43:23;;;;;;;51.90;24.13;;;2.10;99.90;;;;;;5110124;28;20051;-64
2024/03/01 05:45:50;;;;;;;47.90;21.80;;;2.10;99.90;;;;;;5109965;28;20062;-64
2024/03/01 05:48:16;;;;;;;54.45;25.88;;;2.10;99.90;;;;;;5109817;28;20039;-65
2024/03/01 05:50:41;;;;;;;47.53;23.80;;;2.10;99.90;;;;;;5109944;28;20016;-64
2024/03/01 05:53:14;;;;;;;54.92;26.20;;;2.10;99.90;;;;;;5109800;28;20080;-64
2024/03/01 05:55:40;;;;;;;56.10;26.10;;;2.20;99.90;;;;;;5108613;28;20522;-64
2024/03/01 05:58:06;;;;;;;53.05;23.65;;;2.20;99.90;;;;;;5108420;28;20496;-64
2024/03/01 06:00:31;;;;;;;60.03;25.95;;;2.10;99.90;;;;;;5108619;28;20020;-64
2024/03/01 06:02:57;;;;;;;55.75;26.48;;;2.20;99.90;;;;;;5109703;28;20020;-64
2024/03/01 06:05:23;;;;;;;53.13;23.75;;;2.20;99.90;;;;;;5109717;28;20035;-64
2024/03/01 06:07:49;;;;;;;53.25;25.15;;;2.20;99.90;;;;;;5109436;28;20039;-64
2024/03/01 06:10:16;;;;;;;55.13;26.23;;;2.30;99.90;;;;;;5107825;28;20031;-64
2024/03/01 06:12:41;;;;;;;58.05;27.05;;;2.30;99.90;;;;;;5109190;28;20035;-65
2024/03/01 06:15:07;;;;;;;55.40;24.70;;;2.30;99.90;;;;;;5109851;28;20030;-64
2024/03/01 06:17:33;;;;;;;51.92;24.75;;;2.40;99.90;;;;;;5109439;28;20015;-64
2024/03/01 06:19:59;;;;;;;57.88;24.63;;;2.40;99.90;;;;;;5109711;28;20069;-64
2024/03/01 06:22:25;;;;;;;54.38;24.50;;;2.40;99.90;;;;;;5109287;28;20023;-64
2024/03/01 06:24:50;;;;;;;54.05;24.95;;;2.40;99.90;;;;;;5109429;28;20016;-64
2024/03/01 06:27:16;;;;;;;56.03;25.15;;;2.50;99.90;;;;;;5109234;28;20016;-64
2024/03/01 06:29:42;;;;;;;58.15;27.27;;;2.50;99.90;;;;;;5110065;28;20388;-64
2024/03/01 06:32:10;;;;;;;52.03;24.70;;;2.60;99.90;;;;;;5108488;28;20057;-64
2024/03/01 06:34:36;;;;;;;47.33;23.08;;;2.60;99.90;;;;;;5109836;28;20012;-64
2024/03/01 06:37:03;;;;;;;52.35;25.17;;;2.70;99.90;;;;;;5109359;28;20024;-64
2024/03/01 06:39:29;;;;;;;54.70;24.33;;;2.70;99.90;;;;;;5109478;28;20521;-64
2024/03/01 06:41:54;;;;;;;48.10;23.05;;;2.80;99.90;;;;;;5109632;28;20015;-64
2024/03/01 06:44:24;;;;;;;59.72;25.70;;;2.80;99.90;;;;;;5107342;28;20038;-65
2024/03/01 06:46:51;;;;;;;45.83;22.55;;;2.90;99.90;;;;;;5108147;28;20287;-65
2024/03/01 06:49:17;;;;;;;59.50;25.00;;;3.00;99.90;;;;;;5109076;28;20023;-65
2024/03/01 06:51:42;;;;;;;51.53;24.42;;;3.00;99.90;;;;;;5107239;28;20020;-66
2024/03/01 06:54:08;;;;;;;47.90;22.48;;;3.10;99.90;;;;;;5107872;28;20444;-65
2024/03/01 06:56:38;;;;;;;62.00;26.08;;;3.10;99.90;;;;;;5106967;28;20512;-66
2024/03/01 06:59:04;;;;;;;45.30;20.80;;;3.20;99.90;;;;;;5109195;28;20012;-66
2024/03/01 07:01:29;;;;;;;58.17;23.80;;;3.20;99.90;;;;;;5107511;28;20028;-65
2024/03/01 07:03:55;;;;;;;53.53;25.42;;;3.20;99.90;;;;;;5108639;28;20069;-66
2024/03/01 07:06:20;;;;;;;55.58;24.35;;;3.30;99.90;;;;;;5107949;28;20103;-66
2024/03/01 07:08:46;;;;;;;57.97;25.52;;;3.40;99.90;;;;;;5108916;28;20023;-66
2024/03/01 07:11:12;;;;;;;46.60;22.65;;;3.40;99.90;;;;;;5108605;28;20033;-66
2024/03/01 07:13:37;;;;;;;49.08;24.50;;;3.40;99.90;;;;;;5107718;28;20028;-66
2024/03/01 07:16:03;;;;;;;47.88;23.63;;;3.50;99.90;;;;;;5108433;28;20039;-66
2024/03/01 07:18:29;;;;;;;52.80;22.45;;;3.60;99.90;;;;;;5107795;28;20119;-66
2024/03/01 07:20:54;;;;;;;55.08;24.92;;;3.70;99.90;;;;;;5109014;28;20053;-66
2024/03/01 07:23:20;;;;;;;48.47;24.15;;;3.70;99.90;;;;;;5108945;28;20465;-66
2024/03/01 07:25:45;;;;;;;45.80;22.55;;;3.80;99.90;;;;;;5108739;28;20095;-66
2024/03/01 07:28:11;;;;;;;55.88;25.50;;;3.80;99.90;;;;;;5107782;28;20314;-66
2024/03/01 07:30:38;;;;;;;46.28;21.70;;;3.90;99.90;;;;;;5108927;28;20016;-66
2024/03/01 07:33:04;;;;;;;53.20;24.80;;;3.90;99.90;;;;;;5109233;28;20027;-66
2024/03/01 07:35:30;;;;;;;50.28;24.15;;;4.00;99.90;;;;;;5112120;28;20135;-67
2024/03/01 07:37:55;;;;;;;52.60;23.88;;;4.20;99.90;;;;;;5108784;28;20022;-66
2024/03/01 07:40:22;;;;;;;46.60;23.67;;;4.20;99.90;;;;;;5108540;28;20054;-66
2024/03/01 07:42:47;;;;;;;56.67;24.42;;;4.30;99.90;;;;;;5108581;28;20047;-66
2024/03/01 07:45:14;;;;;;;55.30;24.75;;;4.40;99.90;;;;;;5108572;28;20054;-66
2024/03/01 07:47:44;;;;;;;56.72;24.85;;;4.50;99.90;;;;;;5107058;28;20051;-66
2024/03/01 07:50:11;;;;;;;49.38;24.25;;;4.50;99.90;;;;;;5108428;28;20016;-66
2024/03/01 07:52:36;;;;;;;44.67;21.63;;;4.70;99.90;;;;;;5107232;28;20020;-66
2024/03/01 07:55:02;;;;;;;50.70;24.77;;;4.70;99.90;;;;;;5109009;28;20494;-66
2024/03/01 07:57:28;;;;;;;45.97;23.08;;;4.80;99.90;;;;;;5108809;28;20098;-66
2024/03/01 07:59:54;;;;;;;48.53;23.83;;;4.90;99.90;;;;;;5108867;28;20022;-66
2024/03/01 08:02:19;;;;;;;47.10;22.25;;;5.00;99.90;;;;;;5107649;28;20102;-66
2024/03/01 08:04:45;;;;;;;49.40;23.80;;;5.10;99.90;;;;;;5112428;28;20326;-66
2024/03/01 08:07:14;;;;;;;44.88;23.20;;;5.20;99.90;;;;;;5110634;28;20024;-66
2024/03/01 08:09:40;;;;;;;40.17;21.00;;;5.30;99.90;;;;;;5112509;28;20032;-66
2024/03/01 08:12:18;;;;;;;45.17;21.77;;;5.40;99.90;;;;;;5112039;28;20469;-66
2024/03/01 08:14:43;;;;;;;44.42;22.15;;;5.50;99.90;;;;;;5109456;28;20023;-66
2024/03/01 08:17:09;;;;;;;42.28;21.92;;;5.60;99.90;;;;;;5111043;28;20018;-66
2024/03/01 08:19:44;;;;;;;43.30;22.13;;;5.70;99.90;;;;;;5110800;28;20019;-66
2024/03/01 08:22:13;;;;;;;42.17;22.77;;;5.80;99.90;;;;;;5111053;28;20031;-66
2024/03/01 08:24:40;;;;;;;44.03;23.33;;;5.90;99.90;;;;;;5111902;28;20532;-66
2024/03/01 08:27:08;;;;;;;42.60;22.38;;;6.00;99.90;;;;;;5111519;28;20164;-66
2024/03/01 08:29:34;;;;;;;44.47;21.80;;;6.10;99.90;;;;;;5111862;28;20016;-66
2024/03/01 08:32:00;;;;;;;45.22;23.40;;;6.30;99.90;;;;;;5111719;28;20026;-66
2024/03/01 08:34:40;;;;;;;45.47;23.52;;;6.40;99.90;;;;;;5111462;28;20019;-66
2024/03/01 08:37:06;;;;;;;44.17;22.55;;;6.50;99.90;;;;;;5111445;28;20008;-66
2024/03/01 08:39:33;;;;;;;44.30;22.70;;;6.70;99.90;;;;;;5111745;28;20034;-66
2024/03/01 08:42:01;;;;;;;50.72;25.85;;;6.80;99.90;;;;;;5111619;28;20019;-66
2024/03/01 08:44:47;;;;;;;49.00;25.58;;;7.00;99.90;;;;;;5111516;28;20055;-66
2024/03/01 08:47:49;;;;;;;52.00;25.52;;;7.20;99.90;;;;;;5110962;28;20502;-66
2024/03/01 08:50:27;;;;;;;56.10;27.73;;;7.40;99.90;;;;;;5111268;28;20031;-66
2024/03/01 08:52:53;;;;;;;44.17;23.20;;;7.80;99.90;;;;;;5111249;28;20023;-66
2024/03/01 08:55:41;;;;;;;43.70;23.73;;;8.00;99.90;;;;;;5111433;28;20084;-66
2024/03/01 08:58:14;;;;;;;51.65;25.17;;;8.20;99.90;;;;;;5111210;27;20022;-66
2024/03/01 09:00:52;;;;;;;46.15;23.90;;;8.50;99.90;;;;;;5111149;28;20442;-66
2024/03/01 09:03:20;;;;;;;45.22;24.92;;;8.70;99.90;;;;;;5111289;27;20035;-66
2024/03/01 09:05:46;;;;;;;47.00;24.88;;;8.90;99.90;;;;;;5110368;27;20016;-66
2024/03/01 09:08:27;;;;;;;44.35;24.17;;;9.10;99.90;;;;;;5111200;28;20042;-66
2024/03/01 09:10:54;;;;;;;43.30;24.23;;;9.40;99.90;;;;;;5109673;28;20019;-66
2024/03/01 09:13:21;;;;;;;32.47;20.48;;;9.80;99.90;;;;;;5110691;28;20027;-67
2024/03/01 09:15:47;;;;;;;39.55;22.33;;;10.80;99.90;;;;;;5110715;27;20484;-67
2024/03/01 09:18:31;;;;;;;31.42;19.75;;;12.20;99.90;;;;;;5110602;27;20073;-67
2024/03/01 09:20:57;;;;;;;28.63;18.42;;;14.40;99.90;;;;;;5109110;28;20476;-67
2024/03/01 09:23:22;;;;;;;34.58;22.52;;;16.10;98.80;;;;;;5110426;28;20024;-67
2024/03/01 09:25:48;;;;;;;33.30;19.75;;;16.90;92.10;;;;;;5110234;28;20028;-67
2024/03/01 09:28:20;;;;;;;25.45;17.77;;;17.60;90.40;;;;;;5110731;28;20023;-67
2024/03/01 09:30:49;;;;;;;29.92;20.45;;;18.30;89.40;;;;;;5110428;28;20055;-67
2024/03/01 09:33:21;;;;;;;29.73;20.83;;;18.20;84.00;;;;;;5110364;28;20027;-67
2024/03/01 09:35:51;;;;;;;30.40;20.15;;;17.30;85.70;;;;;;5108823;28;20499;-67
2024/03/01 09:38:18;;;;;;;30.73;20.13;;;16.50;87.70;;;;;;5110834;28;20019;-67
2024/03/01 09:41:21;;;;;;;27.50;18.00;;;16.10;90.00;;;;;;5110654;28;20099;-67
2024/03/01 09:43:56;;;;;;;31.88;20.63;;;17.20;89.80;;;;;;5110889;28;20020;-67
2024/03/01 09:46:39;;;;;;;28.35;17.88;;;18.10;85.20;;;;;;5108796;28;20100;-67
2024/03/01 09:49:40;;;;;;;26.65;18.83;;;19.00;82.30;;;;;;5110488;28;20107;-67
2024/03/01 09:52:06;;;;;;;21.98;15.80;;;19.80;80.40;;;;;;5109165;28;20030;-68
2024/03/01 09:54:40;;;;;;;31.25;19.95;;;20.90;79.40;;;;;;5110205;28;20027;-68
2024/03/01 09:57:09;;;;;;;25.33;18.48;;;20.70;75.10;;;;;;5109917;28;20482;-67
2024/03/01 10:00:05;;;;;;;22.27;15.43;;;20.10;76.00;;;;;;5110554;28;20027;-68
2024/03/01 10:02:58;;;;;;;24.00;17.38;;;20.80;77.70;;;;;;5110166;28;20019;-68
2024/03/01 10:05:42;;;;;;;24.25;17.48;;;21.10;74.10;;;;;;5110160;28;20027;-68
2024/03/01 10:08:28;;;;;;;22.20;16.90;;;20.50;75.20;;;;;;5108501;28;20019;-68
2024/03/01 10:11:15;;;;;;;21.42;15.35;;;21.50;73.30;;;;;;5110365;28;20342;-68
2024/03/01 10:13:51;;;;;;;22.30;16.30;;;21.70;71.40;;;;;;5109553;28;20096;-68
2024/03/01 10:16:42;;;;;;;21.58;16.38;;;21.50;71.90;;;;;;5108158;28;20114;-68
2024/03/01 10:19:25;;;;;;;19.25;14.10;;;21.20;73.10;;;;;;5109901;28;20023;-68
2024/03/01 10:21:52;;;;;;;21.13;15.25;;;21.80;72.50;;;;;;5109971;28;20024;-68
2024/03/01 10:24:47;;;;;;;22.63;15.10;;;21.80;70.60;;;;;;5110140;28;20516;-68
2024/03/01 10:27:48;;;;;;;24.30;15.57;;;21.70;71.50;;;;;;5109548;28;20038;-68
2024/03/01 10:30:23;;;;;;;23.80;16.45;;;22.10;70.70;;;;;;5075845;28;20420;-68
2024/03/01 10:33:12;;;;;;;20.27;15.32;;;21.20;70.70;;;;;;5108191;28;20027;-68
2024/03/01 10:35:47;;;;;;;19.15;14.10;;;21.00;73.20;;;;;;5109600;28;20289;-68
2024/03/01 10:38:24;;;;;;;20.92;14.25;;;20.70;71.40;;;;;;5109876;28;20020;-68
2024/03/01 10:40:58;;;;;;;17.10;12.02;;;19.80;73.40;;;;;;5109589;28;20380;-68
2024/03/01 10:43:36;;;;;;;21.90;13.73;;;19.30;76.60;;;;;;5108162;28;20496;-67
2024/03/01 10:46:23;;;;;;;21.35;13.40;;;19.30;76.80;;;;;;5109189;28;20023;-67
2024/03/01 10:49:10;;;;;;;18.75;14.35;;;19.00;76.60;;;;;;5109167;28;20028;-67
2024/03/01 10:51:41;;;;;;;19.17;12.93;;;18.80;76.10;;;;;;5107731;28;20028;-67
2024/03/01 10:54:09;;;;;;;15.70;11.55;;;19.00;76.30;;;;;;5109186;28;20022;-67
2024/03/01 10:56:35;;;;;;;17.52;12.05;;;19.50;76.90;;;;;;5108831;28;20026;-68
2024/03/01 10:59:09;;;;;;;20.65;12.85;;;20.10;74.60;;;;;;5109540;28;20414;-68
2024/03/01 11:01:42;;;;;;;13.65;10.02;;;20.10;75.00;;;;;;5109318;28;20020;-67
2024/03/01 11:04:30;;;;;;;16.23;11.50;;;21.00;74.10;;;;;;5108292;28;20480;-67
2024/03/01 11:07:08;;;;;;;17.25;11.40;;;22.00;71.40;;;;;;5109292;28;20034;-68
2024/03/01 11:09:58;;;;;;;12.27;8.55;;;21.40;71.80;;;;;;5107984;28;20518;-68
2024/03/01 11:12:33;;;;;;;12.98;8.95;;;22.20;72.10;;;;;;5109156;28;20452;-68
2024/03/01 11:15:12;;;;;;;12.48;9.30;;;22.30;71.80;;;;;;5108947;28;20077;-69
2024/03/01 11:17:40;;;;;;;11.57;8.82;;;22.70;69.00;;;;;;5107443;28;20043;-68
2024/03/01 11:20:12;;;;;;;14.32;9.38;;;23.50;68.40;;;;;;5107787;28;20458;-69
2024/03/01 11:22:42;;;;;;;11.35;9.15;;;23.50;68.20;;;;;;5109475;28;20020;-68
2024/03/01 11:25:12;;;;;;;13.82;9.88;;;22.40;69.10;;;;;;5108972;28;20019;-68
2024/03/01 11:27:47;;;;;;;12.87;8.93;;;21.20;69.60;;;;;;5108559;28;20380;-68
2024/03/01 11:30:19;;;;;;;13.40;9.60;;;20.30;72.70;;;;;;5108873;28;20019;-68
2024/03/01 11:32:50;;;;;;;14.40;9.30;;;19.70;74.20;;;;;;5107569;28;20121;-68
2024/03/01 11:35:30;;;;;;;13.07;9.48;;;19.10;76.50;;;;;;5109137;28;20023;-67
2024/03/01 11:38:14;;;;;;;13.38;9.55;;;19.30;75.80;;;;;;5110044;28;20029;-68
2024/03/01 11:41:01;;;;;;;12.63;9.52;;;19.40;75.60;;;;;;5112902;27;20051;-67
2024/03/01 11:44:04;;;;;;;12.18;8.88;;;19.10;75.90;;;;;;5113126;28;20051;-67
2024/03/01 11:46:39;;;;;;;13.80;9.52;;;18.70;78.10;;;;;;5112427;28;20023;-67
2024/03/01 11:49:27;;;;;;;13.27;9.65;;;18.60;78.60;;;;;;5112871;27;20380;-67
2024/03/01 11:52:24;;;;;;;13.07;8.68;;;18.20;78.20;;;;;;5112511;28;20016;-67
2024/03/01 11:55:22;;;;;;;12.70;8.77;;;17.60;80.90;;;;;;5112617;28;20020;-67
2024/03/01 11:58:16;;;;;;;14.13;9.63;;;17.60;81.10;;;;;;5099277;28;20477;-67
2024/03/01 12:01:13;;;;;;;14.43;9.68;;;17.50;81.40;;;;;;5113121;28;20034;-67
2024/03/01 12:03:58;;;;;;;17.73;10.13;;;17.20;82.10;;;;;;5112628;28;20043;-67
2024/03/01 12:06:48;;;;;;;14.27;9.15;;;16.20;83.40;;;;;;5110757;28;20441;-67
2024/03/01 12:09:34;;;;;;;14.52;9.65;;;16.00;87.30;;;;;;5112302;28;20510;-67
2024/03/01 12:12:21;;;;;;;16.63;10.20;;;16.20;85.80;;;;;;5112458;28;20578;-68
2024/03/01 12:15:06;;;;;;;16.10;10.68;;;16.50;86.10;;;;;;5111928;28;20055;-68
2024/03/01 12:17:45;;;;;;;19.02;11.38;;;16.90;85.10;;;;;;5111620;27;20537;-68
2024/03/01 12:20:14;;;;;;;14.77;10.48;;;17.60;83.60;;;;;;5112295;28;20027;-68
2024/03/01 12:22:39;;;;;;;14.00;9.48;;;18.50;80.70;;;;;;5111744;28;20048;-68
2024/03/01 12:25:05;;;;;;;15.30;10.63;;;19.10;78.80;;;;;;5110395;28;20048;-68
2024/03/01 12:28:10;;;;;;;16.38;11.23;;;19.40;79.90;;;;;;5108843;28;20030;-68
2024/03/01 12:30:39;;;;;;;15.43;11.30;;;19.10;78.50;;;;;;5093899;28;20032;-67
2024/03/01 12:33:26;;;;;;;15.55;11.10;;;18.60;80.40;;;;;;5110081;27;20011;-67
2024/03/01 12:36:20;;;;;;;19.63;12.45;;;17.90;80.60;;;;;;5108508;28;20516;-67
2024/03/01 12:38:53;;;;;;;16.58;11.50;;;17.70;81.80;;;;;;5110496;28;20027;-67
2024/03/01 12:41:43;;;;;;;19.40;12.13;;;17.50;82.20;;;;;;5109855;28;20425;-67
2024/03/01 12:44:27;;;;;;;;;;;17.20;83.20;;;;;;5112211;28;20107;-67
2024/03/01 12:47:20;;;;;;;20.27;12.20;;;17.20;85.50;;;;;;5111218;28;19911;-67
2024/03/01 12:50:12;;;;;;;16.25;11.27;;;17.50;83.60;;;;;;5110990;28;20020;-68
2024/03/01 12:52:56;;;;;;;23.20;12.98;;;17.60;84.00;;;;;;5110123;28;20610;-68